Time;durP1;ratioP1;P1;durP2;ratioP2;P2;SDS_P1;SDS_P2;PMS_P1;PMS_P2;Temp;Humidity;BMP_temperature;BMP_pressure;BME280_temperature;BME280_humidity;BME280_pressure;Samples;Min_cycle;Max_cycle;Signal;HPM_P1;HPM_P2
2021/08/26 00:06:38;;;;;;;2.05;1.80;;;;;;;;;;10239287;28;20470;-83
2021/08/26 00:11:39;;;;;;;2.72;2.03;;;;;;;;;;10244812;28;20086;-83
2021/08/26 00:16:41;;;;;;;3.45;2.03;;;;;;;;;;10236605;28;20039;-82
2021/08/26 00:21:42;;;;;;;2.45;2.20;;;;;;;;;;10237039;28;20035;-83
2021/08/26 00:26:43;;;;;;;4.45;2.40;;;;;;;;;;10256659;28;20081;-82
2021/08/26 00:31:44;;;;;;;5.53;2.33;;;;;;;;;;10256386;28;20178;-83
2021/08/26 00:36:44;;;;;;;3.88;2.35;;;;;;;;;;10217221;28;20511;-81
2021/08/26 00:41:45;;;;;;;6.85;2.17;;;;;;;;;;10256160;28;20047;-82
2021/08/26 00:46:47;;;;;;;4.18;2.83;;;;;;;;;;10242287;28;20054;-82
2021/08/26 00:51:48;;;;;;;5.53;3.30;;;;;;;;;;10243667;28;20498;-82
2021/08/26 00:56:48;;;;;;;7.40;3.50;;;;;;;;;;10242795;28;20106;-82
2021/08/26 01:02:00;;;;;;;5.78;3.10;;;;;;;;;;10239082;28;20031;-83
2021/08/26 01:07:16;;;;;;;5.30;3.53;;;;;;;;;;10241078;28;20031;-82
2021/08/26 01:12:19;;;;;;;5.60;3.65;;;;;;;;;;10241427;28;20031;-82
2021/08/26 01:17:21;;;;;;;10.20;3.97;;;;;;;;;;10241887;28;20050;-83
2021/08/26 01:22:24;;;;;;;11.60;4.50;;;;;;;;;;10253914;28;20449;-82
2021/08/26 01:27:39;;;;;;;13.38;3.42;;;;;;;;;;10250381;28;20038;-82
2021/08/26 01:32:42;;;;;;;7.03;3.38;;;;;;;;;;10254216;28;20032;-81
2021/08/26 01:37:44;;;;;;;7.88;3.80;;;;;;;;;;10240653;28;20109;-81
2021/08/26 01:42:45;;;;;;;7.15;3.80;;;;;;;;;;10254453;28;20116;-81
2021/08/26 01:47:46;;;;;;;8.13;3.33;;;;;;;;;;10274717;28;20165;-82
2021/08/26 01:52:46;;;;;;;3.45;2.88;;;;;;;;;;10272243;28;20023;-82
2021/08/26 01:57:47;;;;;;;8.82;3.45;;;;;;;;;;10267674;28;20042;-82
2021/08/26 02:02:47;;;;;;;6.03;2.83;;;;;;;;;;10253774;28;20521;-82
2021/08/26 02:07:49;;;;;;;5.20;2.95;;;;;;;;;;10253220;28;20041;-82
2021/08/26 02:12:50;;;;;;;4.47;3.15;;;;;;;;;;10254069;28;20125;-82
2021/08/26 02:17:51;;;;;;;3.40;2.40;;;;;;;;;;10253521;28;20035;-82
2021/08/26 02:22:51;;;;;;;3.78;2.40;;;;;;;;;;10267053;28;20027;-82
2021/08/26 02:27:52;;;;;;;5.22;2.50;;;;;;;;;;10253298;28;20461;-82
2021/08/26 02:32:53;;;;;;;5.82;2.47;;;;;;;;;;10264901;28;20110;-82
2021/08/26 02:37:53;;;;;;;8.02;2.28;;;;;;;;;;10269610;28;20058;-82
2021/08/26 02:42:54;;;;;;;3.13;1.88;;;;;;;;;;10261095;28;20385;-81
2021/08/26 02:47:55;;;;;;;6.07;2.85;;;;;;;;;;10263596;28;20122;-81
2021/08/26 02:52:55;;;;;;;5.03;2.80;;;;;;;;;;10271243;28;20114;-82
2021/08/26 02:57:56;;;;;;;3.38;2.50;;;;;;;;;;10260431;28;20027;-82
2021/08/26 03:02:56;;;;;;;3.97;2.40;;;;;;;;;;10261458;28;20058;-82
2021/08/26 03:07:57;;;;;;;3.50;2.33;;;;;;;;;;10262159;28;20110;-81
2021/08/26 03:12:57;;;;;;;10.55;2.47;;;;;;;;;;10260875;28;20513;-81
2021/08/26 03:17:57;;;;;;;8.60;2.60;;;;;;;;;;10259847;28;20031;-81
2021/08/26 03:22:58;;;;;;;3.27;2.10;;;;;;;;;;10261119;28;20046;-82
2021/08/26 03:27:59;;;;;;;6.30;2.17;;;;;;;;;;10261465;28;20808;-82
2021/08/26 03:32:59;;;;;;;5.57;2.45;;;;;;;;;;10259685;28;20049;-82
2021/08/26 03:38:00;;;;;;;6.13;2.47;;;;;;;;;;10259489;28;20036;-82
2021/08/26 03:43:00;;;;;;;6.35;2.45;;;;;;;;;;10258102;28;20469;-82
2021/08/26 03:48:00;;;;;;;2.90;1.97;;;;;;;;;;10258757;28;20093;-82
2021/08/26 03:53:01;;;;;;;6.10;2.20;;;;;;;;;;10260685;28;20066;-81
2021/08/26 03:58:02;;;;;;;2.80;2.30;;;;;;;;;;10269326;28;20027;-81
2021/08/26 04:03:02;;;;;;;8.57;2.63;;;;;;;;;;10257589;28;20089;-81
2021/08/26 04:08:03;;;;;;;3.60;2.00;;;;;;;;;;10258219;28;20048;-81
2021/08/26 04:13:03;;;;;;;3.90;2.10;;;;;;;;;;10257276;28;20047;-81
2021/08/26 04:18:04;;;;;;;5.47;2.10;;;;;;;;;;10256308;28;20027;-82
2021/08/26 04:23:05;;;;;;;9.37;2.03;;;;;;;;;;10256693;28;20569;-83
2021/08/26 04:28:06;;;;;;;5.13;2.30;;;;;;;;;;10256444;28;20493;-83
2021/08/26 04:33:07;;;;;;;6.03;2.80;;;;;;;;;;10267575;28;20031;-81
2021/08/26 04:38:07;;;;;;;4.10;2.22;;;;;;;;;;10261004;28;20031;-83
2021/08/26 04:43:07;;;;;;;4.63;2.70;;;;;;;;;;10256001;28;20082;-84
2021/08/26 04:48:08;;;;;;;10.27;3.37;;;;;;;;;;10256534;28;20959;-84
2021/08/26 04:53:08;;;;;;;9.20;3.40;;;;;;;;;;10258848;28;20034;-81
2021/08/26 04:58:08;;;;;;;4.33;3.40;;;;;;;;;;10266502;28;20166;-81
2021/08/26 05:03:09;;;;;;;35.80;3.50;;;;;;;;;;10255690;28;20047;-83
2021/08/26 05:08:09;;;;;;;9.73;2.40;;;;;;;;;;10282914;28;20114;-83
2021/08/26 05:13:10;;;;;;;4.70;2.00;;;;;;;;;;10269590;28;20030;-83
2021/08/26 05:18:11;;;;;;;4.80;2.00;;;;;;;;;;10254894;28;20035;-82
2021/08/26 05:23:11;;;;;;;5.60;2.15;;;;;;;;;;10254944;28;20534;-83
2021/08/26 05:28:12;;;;;;;8.30;2.27;;;;;;;;;;10257624;28;20106;-83
2021/08/26 05:33:13;;;;;;;2.33;1.83;;;;;;;;;;10254568;28;20042;-83
2021/08/26 05:38:13;;;;;;;4.13;1.80;;;;;;;;;;10254788;28;20041;-83
2021/08/26 05:43:14;;;;;;;2.63;1.80;;;;;;;;;;10253999;28;20445;-83
2021/08/26 05:48:14;;;;;;;4.73;1.80;;;;;;;;;;10254290;28;20122;-83
2021/08/26 05:53:15;;;;;;;2.80;1.67;;;;;;;;;;10257942;28;20078;-83
2021/08/26 05:58:15;;;;;;;3.10;2.13;;;;;;;;;;10263871;28;20063;-84
2021/08/26 06:03:16;;;;;;;7.83;2.23;;;;;;;;;;10253473;28;20046;-85
2021/08/26 06:08:16;;;;;;;3.05;2.00;;;;;;;;;;10252535;28;20031;-83
2021/08/26 06:13:17;;;;;;;4.23;1.80;;;;;;;;;;10252769;28;20102;-84
2021/08/26 06:18:18;;;;;;;2.97;1.70;;;;;;;;;;10253715;28;20421;-84
2021/08/26 06:23:18;;;;;;;10.02;1.85;;;;;;;;;;10252954;28;20444;-84
2021/08/26 06:28:18;;;;;;;4.70;1.70;;;;;;;;;;10252513;28;20134;-84
2021/08/26 06:33:19;;;;;;;3.17;1.50;;;;;;;;;;10253553;28;20085;-84
2021/08/26 06:38:19;;;;;;;2.00;1.57;;;;;;;;;;10251967;28;20500;-84
2021/08/26 06:43:20;;;;;;;2.45;1.85;;;;;;;;;;10252832;28;20055;-84
2021/08/26 06:48:20;;;;;;;2.47;1.67;;;;;;;;;;10252615;28;20174;-83
2021/08/26 06:53:21;;;;;;;3.90;1.63;;;;;;;;;;10252427;28;20023;-83
2021/08/26 06:58:21;;;;;;;1.90;1.47;;;;;;;;;;10266303;28;20462;-83
2021/08/26 07:03:21;;;;;;;5.50;1.53;;;;;;;;;;10252940;28;20024;-84
2021/08/26 07:08:22;;;;;;;4.97;1.80;;;;;;;;;;10253041;28;20450;-83
2021/08/26 07:13:22;;;;;;;1.80;1.47;;;;;;;;;;10253223;28;20105;-83
2021/08/26 07:18:24;;;;;;;6.40;1.60;;;;;;;;;;10255964;28;20034;-83
2021/08/26 07:23:25;;;;;;;7.88;1.73;;;;;;;;;;10259754;28;20031;-83
2021/08/26 07:28:25;;;;;;;2.30;1.60;;;;;;;;;;10259734;28;20385;-83
2021/08/26 07:33:26;;;;;;;5.35;1.42;;;;;;;;;;10272807;28;20118;-83
2021/08/26 07:38:26;;;;;;;2.00;1.50;;;;;;;;;;10259278;28;20418;-83
2021/08/26 07:43:30;;;;;;;2.63;1.70;;;;;;;;;;10263084;23;20566;-83
2021/08/26 07:48:31;;;;;;;1.30;1.20;;;;;;;;;;10258709;28;20042;-84
2021/08/26 07:53:34;;;;;;;5.55;1.67;;;;;;;;;;10264240;28;20361;-86
2021/08/26 07:58:34;;;;;;;2.72;1.75;;;;;;;;;;10264762;28;20055;-86
2021/08/26 08:03:35;;;;;;;5.30;1.80;;;;;;;;;;10258908;28;20059;-86
2021/08/26 08:08:35;;;;;;;4.95;2.17;;;;;;;;;;10257050;28;20037;-86
2021/08/26 08:13:36;;;;;;;4.30;2.28;;;;;;;;;;10257182;28;20027;-85
2021/08/26 08:18:37;;;;;;;4.30;2.20;;;;;;;;;;10257235;28;20031;-86
2021/08/26 08:23:37;;;;;;;5.57;2.40;;;;;;;;;;10257403;28;20070;-86
2021/08/26 08:28:38;;;;;;;4.03;2.27;;;;;;;;;;10270462;28;20122;-86
2021/08/26 08:33:39;;;;;;;5.05;2.58;;;;;;;;;;10257051;28;20374;-86
2021/08/26 08:38:39;;;;;;;8.52;2.47;;;;;;;;;;10256524;28;20043;-87
2021/08/26 08:43:40;;;;;;;5.03;2.60;;;;;;;;;;10258067;28;20126;-87
2021/08/26 08:48:42;;;;;;;5.20;2.70;;;;;;;;;;10258885;28;20982;-87
2021/08/26 08:53:43;;;;;;;5.35;2.92;;;;;;;;;;10264383;28;20102;-87
2021/08/26 08:58:43;;;;;;;4.00;2.78;;;;;;;;;;10262749;28;20110;-88
2021/08/26 09:03:44;;;;;;;4.45;2.88;;;;;;;;;;10256781;28;20070;-87
2021/08/26 09:09:01;;;;;;;4.20;2.73;;;;;;;;;;10257168;28;20031;-86
2021/08/26 09:14:12;;;;;;;4.63;2.97;;;;;;;;;;10256183;28;20034;-87
2021/08/26 09:19:29;;;;;;;6.18;2.92;;;;;;;;;;10255396;28;20385;-87
2021/08/26 09:24:49;;;;;;;4.78;2.92;;;;;;;;;;10250301;28;20034;-83
2021/08/26 09:29:59;;;;;;;5.18;2.95;;;;;;;;;;10254207;28;20098;-83
2021/08/26 09:35:09;;;;;;;6.50;3.03;;;;;;;;;;10253995;28;20034;-83
2021/08/26 09:40:10;;;;;;;3.88;2.42;;;;;;;;;;10253568;28;20047;-84
2021/08/26 09:45:22;;;;;;;4.22;2.58;;;;;;;;;;10254414;28;20134;-84
2021/08/26 09:50:45;;;;;;;4.63;2.80;;;;;;;;;;10267788;28;20039;-84
2021/08/26 09:55:51;;;;;;;5.93;3.05;;;;;;;;;;10268081;28;20067;-84
2021/08/26 10:01:12;;;;;;;5.10;3.17;;;;;;;;;;10253714;28;20035;-85
2021/08/26 10:06:15;;;;;;;6.60;3.42;;;;;;;;;;10253578;28;20130;-84
2021/08/26 10:11:18;;;;;;;6.03;3.22;;;;;;;;;;10254126;28;20031;-84
2021/08/26 10:16:18;;;;;;;3.67;3.10;;;;;;;;;;10254335;28;20085;-81
2021/08/26 10:21:19;;;;;;;3.43;2.80;;;;;;;;;;10251967;28;20470;-81
2021/08/26 10:26:20;;;;;;;5.70;3.22;;;;;;;;;;10254290;28;20098;-81
2021/08/26 10:31:32;;;;;;;4.78;3.13;;;;;;;;;;10252471;28;20035;-81
2021/08/26 10:36:42;;;;;;;4.75;3.47;;;;;;;;;;10253147;28;20035;-81
2021/08/26 10:41:43;;;;;;;4.05;2.75;;;;;;;;;;10253917;28;20059;-81
2021/08/26 10:46:50;;;;;;;5.67;3.00;;;;;;;;;;10253109;28;20122;-81
2021/08/26 10:51:53;;;;;;;6.18;3.40;;;;;;;;;;10256994;28;20078;-81
2021/08/26 10:56:54;;;;;;;5.38;3.22;;;;;;;;;;10273695;28;20031;-81
2021/08/26 11:01:55;;;;;;;4.07;2.95;;;;;;;;;;10260774;28;20035;-81
2021/08/26 11:06:56;;;;;;;7.67;3.10;;;;;;;;;;10259908;28;20038;-81
2021/08/26 11:12:03;;;;;;;3.90;2.70;;;;;;;;;;10260519;28;20521;-81
2021/08/26 11:17:04;;;;;;;4.28;3.25;;;;;;;;;;10260494;28;20042;-81
2021/08/26 11:22:08;;;;;;;6.47;3.10;;;;;;;;;;10273816;28;20057;-81
2021/08/26 11:27:22;;;;;;;5.18;3.00;;;;;;;;;;10260901;28;20062;-81
2021/08/26 11:32:24;;;;;;;6.35;2.95;;;;;;;;;;10258326;28;20078;-82
2021/08/26 11:37:31;;;;;;;4.88;2.83;;;;;;;;;;10258177;28;20090;-83
2021/08/26 11:42:37;;;;;;;5.97;2.67;;;;;;;;;;10256107;28;20555;-82
2021/08/26 11:47:41;;;;;;;5.43;2.78;;;;;;;;;;10258746;28;20043;-82
2021/08/26 11:52:43;;;;;;;5.97;2.97;;;;;;;;;;10256324;28;20425;-82
2021/08/26 11:57:44;;;;;;;4.95;2.78;;;;;;;;;;10264657;28;20027;-82
2021/08/26 12:02:53;;;;;;;3.55;2.58;;;;;;;;;;10256597;28;20030;-82
2021/08/26 12:07:55;;;;;;;4.85;2.97;;;;;;;;;;10261100;28;20118;-82
2021/08/26 12:13:08;;;;;;;3.40;2.50;;;;;;;;;;10256234;28;20050;-82
2021/08/26 12:18:11;;;;;;;6.00;2.63;;;;;;;;;;10255871;28;20117;-82
2021/08/26 12:23:19;;;;;;;3.97;2.47;;;;;;;;;;10257687;28;20055;-81
2021/08/26 12:28:30;;;;;;;2.63;2.30;;;;;;;;;;10256488;28;20458;-82
2021/08/26 12:33:32;;;;;;;5.43;2.72;;;;;;;;;;10253886;28;20079;-82
2021/08/26 12:38:38;;;;;;;3.75;2.35;;;;;;;;;;10256366;28;20035;-81
2021/08/26 12:43:42;;;;;;;3.60;2.40;;;;;;;;;;10256177;28;20123;-82
2021/08/26 12:48:49;;;;;;;4.20;2.35;;;;;;;;;;10255929;28;20075;-81
2021/08/26 12:53:55;;;;;;;6.25;2.60;;;;;;;;;;10271466;28;20046;-84
2021/08/26 12:59:06;;;;;;;4.57;2.47;;;;;;;;;;10254271;28;20179;-84
2021/08/26 13:04:23;;;;;;;10.20;2.55;;;;;;;;;;10252598;28;20327;-83
2021/08/26 13:09:27;;;;;;;7.43;2.25;;;;;;;;;;10251041;28;20035;-84
2021/08/26 13:14:30;;;;;;;7.10;2.63;;;;;;;;;;10269769;28;20043;-83
2021/08/26 13:19:31;;;;;;;30.60;4.05;;;;;;;;;;10255593;28;20414;-92
2021/08/26 13:24:31;;;;;;;17.10;2.60;;;;;;;;;;10274009;28;20058;-93
2021/08/26 13:29:32;;;;;;;20.00;2.43;;;;;;;;;;10242640;28;20101;-92
2021/08/26 13:34:32;;;;;;;13.13;2.20;;;;;;;;;;10241541;28;20050;-92
2021/08/26 13:39:33;;;;;;;7.93;2.47;;;;;;;;;;10269683;28;20031;-92
2021/08/26 13:44:34;;;;;;;4.72;2.50;;;;;;;;;;10250330;28;20039;-92
2021/08/26 13:49:34;;;;;;;9.25;2.35;;;;;;;;;;10267985;28;20030;-93
2021/08/26 13:54:35;;;;;;;8.07;2.10;;;;;;;;;;10241972;28;20038;-92
2021/08/26 13:59:35;;;;;;;3.47;1.98;;;;;;;;;;10223083;28;20057;-93
2021/08/26 14:04:36;;;;;;;4.77;2.13;;;;;;;;;;10251424;28;20492;-92
2021/08/26 14:09:36;;;;;;;5.70;1.73;;;;;;;;;;10246413;28;20031;-84
2021/08/26 14:14:37;;;;;;;3.80;2.07;;;;;;;;;;10253227;28;20031;-87
2021/08/26 14:19:37;;;;;;;3.43;2.07;;;;;;;;;;10256046;28;20031;-86
2021/08/26 14:24:37;;;;;;;3.97;2.10;;;;;;;;;;10255448;28;20035;-87
2021/08/26 14:29:38;;;;;;;2.83;1.47;;;;;;;;;;10272365;28;20031;-87
2021/08/26 14:34:38;;;;;;;3.97;1.63;;;;;;;;;;10275806;28;20102;-86
2021/08/26 14:39:40;;;;;;;3.70;1.98;;;;;;;;;;10259634;28;20065;-86
2021/08/26 14:44:40;;;;;;;5.40;2.00;;;;;;;;;;10261711;28;20043;-87
2021/08/26 14:49:41;;;;;;;3.83;1.93;;;;;;;;;;10238218;28;20035;-85
2021/08/26 14:54:41;;;;;;;2.22;1.58;;;;;;;;;;10260401;28;20445;-85
2021/08/26 14:59:45;;;;;;;4.20;1.50;;;;;;;;;;10260461;28;20036;-85
2021/08/26 15:04:46;;;;;;;2.42;1.83;;;;;;;;;;10261095;28;20023;-95
2021/08/26 15:09:46;;;;;;;4.13;1.60;;;;;;;;;;10244509;28;20046;-92
2021/08/26 15:14:46;;;;;;;7.43;1.97;;;;;;;;;;10263637;28;20037;-92
2021/08/26 15:19:48;;;;;;;6.43;1.83;;;;;;;;;;10260697;28;21105;-93
2021/08/26 15:24:48;;;;;;;8.73;2.40;;;;;;;;;;10242697;28;20031;-91
2021/08/26 15:29:49;;;;;;;2.97;2.03;;;;;;;;;;10287940;28;20043;-91
2021/08/26 15:34:49;;;;;;;5.30;2.17;;;;;;;;;;10243570;28;20047;-92
2021/08/26 15:39:50;;;;;;;6.43;2.15;;;;;;;;;;10284000;28;20047;-91
2021/08/26 15:44:50;;;;;;;6.63;2.20;;;;;;;;;;10248699;28;20043;-91
2021/08/26 15:49:52;;;;;;;5.30;2.00;;;;;;;;;;10274043;28;20520;-91
2021/08/26 15:55:18;;;;;;;7.93;1.80;;;;;;;;;;10286307;28;20057;-91
2021/08/26 16:00:32;;;;;;;6.53;1.80;;;;;;;;;;10259416;28;20046;-91
2021/08/26 16:05:34;;;;;;;3.65;1.95;;;;;;;;;;10298020;28;20035;-91
2021/08/26 16:10:35;;;;;;;6.50;2.55;;;;;;;;;;10231478;28;20028;-91
2021/08/26 16:15:36;;;;;;;2.38;1.77;;;;;;;;;;10311482;28;20048;-92
2021/08/26 16:20:40;;;;;;;5.18;1.95;;;;;;;;;;10268398;28;20031;-90
2021/08/26 16:25:42;;;;;;;2.95;2.17;;;;;;;;;;10306415;28;20042;-92
2021/08/26 16:30:43;;;;;;;2.67;1.75;;;;;;;;;;10256494;28;20087;-90
2021/08/26 16:35:43;;;;;;;2.97;1.80;;;;;;;;;;10256954;28;20023;-91
2021/08/26 16:40:45;;;;;;;5.88;2.33;;;;;;;;;;10254291;28;20047;-90
2021/08/26 16:45:46;;;;;;;4.78;1.98;;;;;;;;;;10271338;28;20051;-91
2021/08/26 16:50:46;;;;;;;4.85;2.25;;;;;;;;;;10241034;28;20034;-91
2021/08/26 16:55:47;;;;;;;2.65;2.22;;;;;;;;;;10250412;28;20027;-91
2021/08/26 17:00:47;;;;;;;5.50;2.00;;;;;;;;;;10254760;28;20027;-92
2021/08/26 17:05:48;;;;;;;3.60;2.10;;;;;;;;;;10253363;28;20461;-90
2021/08/26 17:10:48;;;;;;;2.47;2.00;;;;;;;;;;10253410;28;20369;-92
2021/08/26 17:15:48;;;;;;;4.30;2.10;;;;;;;;;;10253822;28;20038;-91
2021/08/26 17:20:49;;;;;;;2.73;1.73;;;;;;;;;;10238295;28;20577;-93
2021/08/26 17:25:49;;;;;;;5.65;2.20;;;;;;;;;;10246159;28;20037;-94
2021/08/26 17:30:50;;;;;;;6.38;2.00;;;;;;;;;;10237922;28;20594;-95
2021/08/26 17:35:50;;;;;;;3.03;1.60;;;;;;;;;;10238653;28;20073;-94
2021/08/26 17:40:51;;;;;;;2.27;1.97;;;;;;;;;;10237380;28;20057;-94
2021/08/26 17:45:52;;;;;;;2.88;1.80;;;;;;;;;;10234738;28;20453;-94
2021/08/26 17:50:52;;;;;;;6.90;2.22;;;;;;;;;;10271382;28;20031;-94
2021/08/26 17:55:56;;;;;;;5.00;2.27;;;;;;;;;;10269803;28;20075;-95
2021/08/26 18:00:57;;;;;;;2.60;1.83;;;;;;;;;;10281174;28;20050;-94
2021/08/26 18:05:57;;;;;;;4.43;2.35;;;;;;;;;;10256768;28;20182;-94
2021/08/26 18:10:58;;;;;;;5.40;2.13;;;;;;;;;;10240796;28;20054;-94
2021/08/26 18:15:58;;;;;;;5.10;2.17;;;;;;;;;;10237167;28;20466;-94
2021/08/26 18:20:59;;;;;;;6.10;1.83;;;;;;;;;;10283998;28;20468;-94
2021/08/26 18:25:59;;;;;;;3.33;1.63;;;;;;;;;;10238921;28;20134;-94
2021/08/26 18:30:59;;;;;;;2.13;1.73;;;;;;;;;;10253029;28;21050;-93
2021/08/26 18:36:00;;;;;;;2.88;1.58;;;;;;;;;;10237466;28;20051;-93
2021/08/26 18:41:00;;;;;;;1.77;1.60;;;;;;;;;;10269234;28;20055;-93
2021/08/26 18:46:01;;;;;;;3.20;2.30;;;;;;;;;;10255113;28;20054;-91
2021/08/26 18:51:01;;;;;;;5.97;2.57;;;;;;;;;;10235409;28;20465;-92
2021/08/26 18:56:02;;;;;;;6.65;2.40;;;;;;;;;;10235662;28;20122;-92
2021/08/26 19:01:02;;;;;;;2.60;2.00;;;;;;;;;;10253298;28;20540;-92
2021/08/26 19:06:02;;;;;;;4.00;2.10;;;;;;;;;;10236212;28;20381;-91
2021/08/26 19:11:03;;;;;;;4.82;2.38;;;;;;;;;;10244826;28;20031;-91
2021/08/26 19:16:03;;;;;;;4.77;2.57;;;;;;;;;;10276171;28;20062;-91
2021/08/26 19:21:05;;;;;;;7.78;2.70;;;;;;;;;;10275838;28;20515;-91
2021/08/26 19:26:05;;;;;;;3.53;2.40;;;;;;;;;;10275558;28;20039;-91
2021/08/26 19:31:06;;;;;;;4.97;2.70;;;;;;;;;;10273164;28;20158;-92
2021/08/26 19:36:06;;;;;;;3.80;2.42;;;;;;;;;;10258926;28;20515;-92
2021/08/26 19:41:07;;;;;;;4.25;2.35;;;;;;;;;;10533875;23;20049;-92
2021/08/26 19:46:08;;;;;;;3.83;2.10;;;;;;;;;;10398016;28;20034;-83
2021/08/26 19:51:08;;;;;;;4.22;2.97;;;;;;;;;;10415635;28;20025;-84
2021/08/26 19:56:08;;;;;;;7.33;2.97;;;;;;;;;;10420929;28;20021;-84
2021/08/26 20:01:09;;;;;;;5.85;2.53;;;;;;;;;;10419328;28;20840;-84
2021/08/26 20:06:10;;;;;;;4.68;3.00;;;;;;;;;;10384356;28;20084;-85
2021/08/26 20:11:10;;;;;;;4.65;3.00;;;;;;;;;;10400154;28;20061;-84
2021/08/26 20:16:11;;;;;;;4.72;2.75;;;;;;;;;;10415481;28;20081;-84
2021/08/26 20:21:11;;;;;;;8.13;3.25;;;;;;;;;;10415474;28;20033;-84
2021/08/26 20:26:12;;;;;;;8.38;3.00;;;;;;;;;;10416661;28;20471;-84
2021/08/26 20:31:12;;;;;;;5.03;3.00;;;;;;;;;;10419026;28;20108;-84
2021/08/26 20:36:13;;;;;;;8.80;3.70;;;;;;;;;;10418798;28;20032;-84
2021/08/26 20:41:13;;;;;;;6.80;4.30;;;;;;;;;;10414996;28;20050;-84
2021/08/26 20:46:16;;;;;;;11.88;4.22;;;;;;;;;;10415858;28;20443;-84
2021/08/26 20:51:17;;;;;;;6.25;3.60;;;;;;;;;;10418047;28;20025;-84
2021/08/26 20:56:18;;;;;;;6.75;2.97;;;;;;;;;;10410758;28;20025;-84
2021/08/26 21:01:19;;;;;;;5.95;3.20;;;;;;;;;;10417728;28;20442;-86
2021/08/26 21:06:19;;;;;;;9.07;3.25;;;;;;;;;;10417813;28;20095;-86
2021/08/26 21:11:20;;;;;;;3.13;2.47;;;;;;;;;;10391816;28;20025;-86
2021/08/26 21:16:20;;;;;;;9.40;2.87;;;;;;;;;;10415800;28;20479;-87
2021/08/26 21:21:21;;;;;;;4.57;2.60;;;;;;;;;;10414630;28;21016;-86
2021/08/26 21:26:22;;;;;;;4.20;2.60;;;;;;;;;;10381380;28;20025;-86
2021/08/26 21:31:22;;;;;;;5.85;3.00;;;;;;;;;;10408248;28;20471;-82
2021/08/26 21:36:23;;;;;;;4.10;2.67;;;;;;;;;;10413657;28;20455;-86
2021/08/26 21:41:23;;;;;;;6.57;2.88;;;;;;;;;;10413933;28;20053;-83
2021/08/26 21:46:24;;;;;;;7.25;2.78;;;;;;;;;;10399271;28;20044;-83
2021/08/26 21:51:25;;;;;;;4.80;2.47;;;;;;;;;;10406572;28;20037;-83
2021/08/26 21:56:25;;;;;;;6.72;2.67;;;;;;;;;;10403692;28;20029;-83
2021/08/26 22:01:26;;;;;;;5.53;2.27;;;;;;;;;;10410668;28;20379;-83
2021/08/26 22:06:26;;;;;;;3.83;2.37;;;;;;;;;;10404760;28;20451;-84
2021/08/26 22:11:27;;;;;;;4.00;2.00;;;;;;;;;;10392475;28;20459;-83
2021/08/26 22:16:27;;;;;;;4.03;2.27;;;;;;;;;;10406485;28;20127;-81
2021/08/26 22:21:27;;;;;;;3.00;2.30;;;;;;;;;;10412762;28;20037;-81
2021/08/26 22:26:28;;;;;;;3.50;2.60;;;;;;;;;;10414538;28;20475;-81
2021/08/26 22:31:28;;;;;;;4.35;2.25;;;;;;;;;;10414974;28;20600;-81
2021/08/26 22:36:29;;;;;;;3.15;2.15;;;;;;;;;;10415790;28;20053;-82
2021/08/26 22:41:29;;;;;;;6.40;2.40;;;;;;;;;;10415302;28;20497;-81
2021/08/26 22:46:30;;;;;;;2.10;1.90;;;;;;;;;;10415385;28;20048;-81
2021/08/26 22:51:31;;;;;;;8.63;2.63;;;;;;;;;;10422636;28;20029;-81
2021/08/26 22:56:32;;;;;;;6.50;2.40;;;;;;;;;;10422280;28;20025;-85
2021/08/26 23:01:33;;;;;;;2.72;2.20;;;;;;;;;;10411401;28;20033;-84
2021/08/26 23:06:33;;;;;;;5.45;2.47;;;;;;;;;;10422505;28;20061;-86
2021/08/26 23:11:33;;;;;;;3.80;2.50;;;;;;;;;;10422073;28;20064;-86
2021/08/26 23:16:34;;;;;;;4.00;2.20;;;;;;;;;;10422008;28;20387;-85
2021/08/26 23:21:34;;;;;;;3.43;2.37;;;;;;;;;;10412298;28;20037;-87
2021/08/26 23:26:35;;;;;;;5.47;2.70;;;;;;;;;;10421207;28;20104;-88
2021/08/26 23:31:35;;;;;;;3.13;2.08;;;;;;;;;;10387233;28;20034;-87
2021/08/26 23:36:35;;;;;;;3.33;2.30;;;;;;;;;;10421887;28;20052;-87
2021/08/26 23:41:36;;;;;;;2.97;1.97;;;;;;;;;;10420663;28;20458;-88
2021/08/26 23:46:36;;;;;;;3.03;1.90;;;;;;;;;;10420880;28;20045;-87
2021/08/26 23:51:37;;;;;;;6.87;2.30;;;;;;;;;;10421243;28;20049;-87
2021/08/26 23:56:37;;;;;;;6.10;2.23;;;;;;;;;;10421500;28;20435;-86
